createdAt,value
2019-04-14T00:02:09.786Z,24.85
2019-04-14T00:04:42.568Z,25.65
2019-04-14T00:07:10.792Z,24.70
2019-04-14T00:09:40.000Z,22.55
2019-04-14T00:12:10.509Z,23.87
2019-04-14T00:14:38.808Z,23.85
2019-04-14T00:17:07.208Z,23.55
2019-04-14T00:19:35.433Z,22.85
2019-04-14T00:22:03.720Z,24.12
2019-04-14T00:24:31.934Z,23.30
2019-04-14T00:27:00.163Z,22.27
2019-04-14T00:29:28.473Z,23.57
2019-04-14T00:31:57.017Z,23.02
2019-04-14T00:34:44.187Z,23.27
2019-04-14T00:37:27.340Z,22.42
2019-04-14T00:39:57.574Z,23.00
2019-04-14T00:42:27.736Z,23.50
2019-04-14T00:44:58.069Z,23.40
2019-04-14T00:47:31.185Z,23.90
2019-04-14T00:49:59.524Z,22.73
2019-04-14T00:52:27.863Z,21.82
2019-04-14T00:54:56.468Z,23.38
2019-04-14T00:57:24.811Z,23.65
2019-04-14T00:59:53.153Z,21.97
2019-04-14T01:02:21.346Z,21.60
2019-04-14T01:04:49.645Z,22.50
2019-04-14T01:07:17.874Z,22.27
2019-04-14T01:09:46.359Z,23.45
2019-04-14T01:12:14.926Z,22.50
2019-04-14T01:14:43.233Z,23.38
2019-04-14T01:17:11.446Z,21.77
2019-04-14T01:19:39.705Z,23.55
2019-04-14T01:22:07.927Z,23.73
2019-04-14T01:24:36.138Z,21.93
2019-04-14T01:27:04.559Z,21.82
2019-04-14T01:29:34.044Z,21.95
2019-04-14T01:32:02.418Z,21.97
2019-04-14T01:34:30.690Z,22.93
2019-04-14T01:36:58.939Z,21.37
2019-04-14T01:39:27.506Z,22.65
2019-04-14T01:41:56.799Z,22.05
2019-04-14T01:44:26.312Z,22.07
2019-04-14T01:46:54.656Z,21.70
2019-04-14T01:49:22.878Z,21.23
2019-04-14T01:52:10.233Z,22.70
2019-04-14T01:54:49.514Z,22.87
2019-04-14T01:57:19.959Z,21.87
2019-04-14T01:59:48.395Z,21.45
2019-04-14T02:02:18.433Z,21.10
2019-04-14T02:04:46.790Z,22.30
2019-04-14T02:07:15.039Z,21.42
2019-04-14T02:09:44.423Z,20.95
2019-04-14T02:12:12.888Z,22.42
2019-04-14T02:14:41.123Z,22.25
2019-04-14T02:17:09.515Z,22.48
2019-04-14T02:19:39.169Z,22.77
2019-04-14T02:22:07.613Z,21.42
2019-04-14T02:24:35.828Z,22.20
2019-04-14T02:27:04.058Z,22.15
2019-04-14T02:29:32.285Z,21.42
2019-04-14T02:32:33.740Z,21.87
2019-04-14T02:34:57.414Z,20.68
2019-04-14T02:37:30.155Z,21.85
2019-04-14T02:40:05.375Z,22.77
2019-04-14T02:42:43.992Z,21.77
2019-04-14T02:45:19.150Z,21.40
2019-04-14T02:50:14.212Z,20.57
2019-04-14T02:52:57.157Z,20.62
2019-04-14T02:55:10.992Z,21.20
2019-04-14T02:57:47.311Z,22.85
2019-04-14T03:00:21.077Z,21.80
2019-04-14T03:02:56.761Z,21.60
2019-04-14T03:05:09.434Z,21.65
2019-04-14T03:07:46.153Z,20.55
2019-04-14T03:15:19.461Z,23.22
2019-04-14T03:18:16.502Z,22.27
2019-04-14T03:20:31.853Z,20.80
2019-04-14T03:23:18.927Z,21.77
2019-04-14T03:25:56.944Z,21.97
2019-04-14T03:28:36.466Z,20.88
2019-04-14T03:41:08.718Z,22.52
2019-04-14T03:43:30.603Z,21.33
2019-04-14T03:51:06.772Z,22.45
2019-04-14T03:55:55.358Z,20.80
2019-04-14T03:58:21.021Z,20.95
2019-04-14T04:00:49.393Z,21.82
2019-04-14T04:03:17.712Z,22.48
2019-04-14T04:05:45.931Z,22.65
2019-04-14T04:08:14.203Z,23.10
2019-04-14T04:10:51.019Z,24.67
2019-04-14T04:13:19.431Z,21.35
2019-04-14T04:15:48.161Z,21.80
2019-04-14T04:18:21.916Z,21.02
2019-04-14T04:20:52.433Z,21.42
2019-04-14T04:23:35.646Z,22.50
2019-04-14T04:26:24.062Z,22.77
2019-04-14T04:29:09.123Z,22.20
2019-04-14T04:31:48.323Z,23.98
2019-04-14T04:34:18.396Z,23.40
2019-04-14T04:36:57.483Z,21.27
2019-04-14T04:39:35.271Z,22.37
2019-04-14T04:42:03.231Z,22.70
2019-04-14T04:44:31.473Z,23.45
2019-04-14T04:46:59.709Z,23.47
2019-04-14T04:49:29.718Z,24.05
2019-04-14T04:51:57.934Z,22.75
2019-04-14T04:54:26.158Z,24.23
2019-04-14T04:56:54.370Z,22.22
2019-04-14T04:59:23.481Z,23.35
2019-04-14T05:01:51.840Z,24.70
2019-04-14T05:04:20.059Z,24.47
2019-04-14T05:06:57.156Z,25.37
2019-04-14T05:09:38.552Z,23.90
2019-04-14T05:12:24.227Z,22.55
2019-04-14T05:15:00.973Z,23.92
2019-04-14T05:17:34.240Z,22.80
2019-04-14T05:20:03.208Z,23.10
2019-04-14T05:22:31.628Z,23.90
2019-04-14T05:24:59.886Z,25.02
2019-04-14T05:27:28.099Z,23.70
2019-04-14T05:29:56.326Z,24.05
2019-04-14T05:32:24.598Z,23.90
2019-04-14T05:34:52.801Z,24.27
2019-04-14T05:37:21.031Z,22.67
2019-04-14T05:39:50.410Z,23.67
2019-04-14T05:42:22.097Z,24.75
2019-04-14T05:44:49.439Z,24.70
2019-04-14T05:47:17.788Z,22.60
2019-04-14T05:49:50.678Z,24.98
2019-04-14T05:52:16.340Z,23.25
2019-04-14T05:54:44.786Z,23.70
2019-04-14T05:57:13.371Z,24.18
2019-04-14T05:59:41.891Z,24.82
2019-04-14T06:02:10.125Z,23.85
2019-04-14T06:04:39.564Z,24.85
2019-04-14T06:07:07.941Z,24.25
2019-04-14T06:09:36.174Z,24.10
2019-04-14T06:12:04.425Z,24.77
2019-04-14T06:14:32.682Z,25.20
2019-04-14T06:17:00.890Z,23.57
2019-04-14T06:19:37.092Z,24.43
2019-04-14T06:21:59.052Z,25.72
2019-04-14T06:24:27.287Z,24.72
2019-04-14T06:26:56.371Z,23.35
2019-04-14T06:29:24.583Z,28.17
2019-04-14T06:32:10.763Z,24.37
2019-04-14T06:34:57.371Z,24.30
2019-04-14T06:37:27.251Z,22.98
2019-04-14T06:39:57.124Z,25.43
2019-04-14T06:42:25.344Z,23.35
2019-04-14T06:44:53.613Z,25.20
2019-04-14T06:47:21.834Z,24.82
2019-04-14T06:49:50.050Z,25.80
2019-04-14T06:52:21.502Z,25.35
2019-04-14T06:54:49.764Z,24.75
2019-04-14T06:57:18.030Z,25.68
2019-04-14T06:59:46.258Z,25.17
2019-04-14T07:02:14.485Z,25.82
2019-04-14T07:04:42.748Z,23.50
2019-04-14T07:07:11.035Z,24.35
2019-04-14T07:09:39.266Z,25.80
2019-04-14T07:12:07.566Z,24.82
2019-04-14T07:14:35.979Z,23.62
2019-04-14T07:17:05.257Z,23.73
2019-04-14T07:19:33.468Z,24.12
2019-04-14T07:22:01.755Z,24.35
2019-04-14T07:24:29.985Z,25.68
2019-04-14T07:26:58.276Z,24.72
2019-04-14T07:29:28.119Z,24.72
2019-04-14T07:32:16.265Z,24.72
2019-04-14T07:35:02.484Z,24.98
2019-04-14T07:37:32.378Z,24.67
2019-04-14T07:40:02.238Z,24.10
2019-04-14T07:42:32.148Z,24.50
2019-04-14T07:45:02.013Z,24.63
2019-04-14T07:47:31.881Z,24.47
2019-04-14T07:50:13.690Z,23.30
2019-04-14T07:52:36.353Z,22.93
2019-04-14T07:55:15.728Z,22.73
2019-04-14T07:57:48.679Z,24.32
2019-04-14T08:00:33.779Z,22.95
2019-04-14T08:03:03.633Z,22.52
2019-04-14T08:05:33.503Z,24.63
2019-04-14T08:08:01.814Z,23.87
2019-04-14T08:10:30.065Z,22.80
2019-04-14T08:12:58.312Z,22.37
2019-04-14T08:15:26.541Z,24.23
2019-04-14T08:17:54.819Z,23.55
2019-04-14T08:20:27.603Z,22.30
2019-04-14T08:22:53.152Z,22.65
2019-04-14T08:25:21.441Z,22.58
2019-04-14T08:27:49.982Z,22.35
2019-04-14T08:30:18.401Z,21.62
2019-04-14T08:32:46.943Z,22.25
2019-04-14T08:35:15.275Z,21.60
2019-04-14T08:37:43.484Z,21.23
2019-04-14T08:40:11.761Z,21.20
2019-04-14T08:42:41.697Z,21.77
2019-04-14T08:45:23.822Z,21.62
2019-04-14T08:47:59.746Z,22.90
2019-04-14T08:50:46.263Z,21.45
2019-04-14T08:53:28.271Z,21.42
2019-04-14T08:56:04.264Z,25.05
2019-04-14T08:58:34.144Z,22.77
2019-04-14T09:01:10.912Z,23.12
2019-04-14T09:03:40.841Z,21.50
2019-04-14T09:06:18.019Z,22.82
2019-04-14T09:08:47.913Z,22.48
2019-04-14T09:11:18.537Z,22.02
2019-04-14T09:13:46.879Z,23.30
2019-04-14T09:16:15.292Z,23.10
2019-04-14T09:18:43.727Z,22.95
2019-04-14T09:21:12.097Z,20.68
2019-04-14T09:23:40.682Z,20.70
2019-04-14T09:26:08.926Z,22.87
2019-04-14T09:28:37.255Z,20.80
2019-04-14T09:31:05.660Z,21.73
2019-04-14T09:33:34.078Z,19.98
2019-04-14T09:36:03.236Z,20.40
2019-04-14T09:38:31.453Z,20.97
2019-04-14T09:40:59.709Z,20.95
2019-04-14T09:43:27.930Z,21.33
2019-04-14T09:45:56.180Z,23.00
2019-04-14T09:48:24.431Z,22.90
2019-04-14T09:51:04.288Z,22.55
2019-04-14T09:53:22.730Z,22.25
2019-04-14T09:55:51.122Z,23.45
2019-04-14T09:58:19.413Z,22.90
2019-04-14T10:00:47.722Z,21.70
2019-04-14T10:03:15.941Z,23.22
2019-04-14T10:05:44.161Z,22.58
2019-04-14T10:08:12.458Z,23.18
2019-04-14T10:10:40.788Z,22.20
2019-04-14T10:13:09.150Z,23.18
2019-04-14T10:15:37.381Z,22.55
2019-04-14T10:18:05.646Z,23.40
2019-04-14T10:20:33.891Z,23.22
2019-04-14T10:23:02.292Z,22.45
2019-04-14T10:25:31.806Z,23.02
2019-04-14T10:28:00.114Z,22.67
2019-04-14T10:30:29.318Z,23.98
2019-04-14T10:32:57.542Z,23.50
2019-04-14T10:35:25.844Z,21.57
2019-04-14T10:37:54.270Z,22.07
2019-04-14T10:40:22.509Z,22.98
2019-04-14T10:42:50.773Z,22.90
2019-04-14T10:45:18.998Z,22.77
2019-04-14T10:47:47.229Z,23.73
2019-04-14T10:50:15.501Z,23.05
2019-04-14T10:52:43.727Z,21.97
2019-04-14T10:55:12.241Z,20.85
2019-04-14T10:57:40.682Z,22.20
2019-04-14T11:00:10.960Z,21.02
2019-04-14T11:02:39.207Z,22.62
2019-04-14T11:05:07.431Z,22.70
2019-04-14T11:07:35.641Z,23.20
2019-04-14T11:10:06.022Z,21.65
2019-04-14T11:12:34.269Z,22.70
2019-04-14T11:15:02.720Z,22.75
2019-04-14T11:17:31.151Z,22.30
2019-04-14T11:19:59.545Z,22.13
2019-04-14T11:22:27.763Z,22.77
2019-04-14T11:24:56.082Z,22.25
2019-04-14T11:27:24.379Z,21.97
2019-04-14T11:29:54.022Z,23.83
2019-04-14T11:32:33.819Z,23.02
2019-04-14T11:35:03.812Z,24.40
2019-04-14T11:37:36.401Z,23.50
2019-04-14T11:40:07.470Z,22.85
2019-04-14T11:42:35.687Z,22.37
2019-04-14T11:45:06.324Z,21.73
2019-04-14T11:47:34.526Z,22.55
2019-04-14T11:50:03.021Z,24.80
2019-04-14T11:52:31.245Z,22.42
2019-04-14T11:54:59.511Z,22.65
2019-04-14T11:57:27.832Z,23.47
2019-04-14T12:00:14.081Z,22.48
2019-04-14T12:03:00.627Z,23.20
2019-04-14T12:05:30.498Z,23.15
2019-04-14T12:08:09.219Z,24.27
2019-04-14T12:10:37.437Z,23.70
2019-04-14T12:13:05.662Z,24.05
2019-04-14T12:15:34.515Z,23.07
2019-04-14T12:18:02.919Z,22.87
2019-04-14T12:20:31.641Z,24.72
2019-04-14T12:22:59.940Z,22.87
2019-04-14T12:25:28.219Z,21.25
2019-04-14T12:27:57.937Z,22.30
2019-04-14T12:30:26.901Z,21.50
2019-04-14T12:32:55.306Z,20.57
2019-04-14T12:35:23.579Z,21.55
2019-04-14T12:37:51.792Z,20.62
2019-04-14T12:40:20.043Z,21.33
2019-04-14T12:42:52.621Z,21.97
2019-04-14T12:45:28.468Z,21.57
2019-04-14T12:47:58.357Z,20.30
2019-04-14T12:50:28.204Z,20.35
2019-04-14T12:52:56.810Z,20.10
2019-04-14T12:55:25.056Z,19.85
2019-04-14T12:57:54.930Z,19.90
2019-04-14T13:00:27.542Z,20.27
2019-04-14T13:02:56.253Z,21.37
2019-04-14T13:05:24.580Z,20.35
2019-04-14T13:07:52.804Z,20.02
2019-04-14T13:10:21.035Z,20.40
2019-04-14T13:12:49.259Z,20.25
2019-04-14T13:15:17.477Z,20.20
2019-04-14T13:17:45.706Z,20.10
2019-04-14T13:20:13.946Z,19.48
2019-04-14T13:22:42.210Z,19.52
2019-04-14T13:25:10.450Z,20.80
2019-04-14T13:27:38.679Z,21.45
2019-04-14T13:30:10.082Z,20.10
2019-04-14T13:32:38.306Z,20.68
2019-04-14T13:35:06.795Z,21.25
2019-04-14T13:37:35.008Z,19.90
2019-04-14T13:40:04.904Z,21.60
2019-04-14T13:42:33.228Z,21.73
2019-04-14T13:45:01.449Z,21.07
2019-04-14T13:47:29.663Z,20.70
2019-04-14T13:49:57.921Z,20.48
2019-04-14T13:52:26.130Z,21.40
2019-04-14T13:54:54.346Z,21.95
2019-04-14T13:57:22.562Z,20.90
2019-04-14T13:59:50.790Z,21.25
2019-04-14T14:02:19.010Z,19.75
2019-04-14T14:04:47.238Z,20.90
2019-04-14T14:07:15.447Z,21.23
2019-04-14T14:09:43.732Z,19.73
2019-04-14T14:12:30.246Z,20.92
2019-04-14T14:15:00.115Z,19.65
2019-04-14T14:17:35.852Z,19.92
2019-04-14T14:20:13.641Z,20.23
2019-04-14T14:22:43.517Z,21.35
2019-04-14T14:25:29.778Z,21.70
2019-04-14T14:27:58.042Z,21.97
2019-04-14T14:30:26.257Z,20.23
2019-04-14T14:32:54.474Z,21.23
2019-04-14T14:35:22.723Z,19.65
2019-04-14T14:37:51.046Z,21.20
2019-04-14T14:40:19.314Z,20.15
2019-04-14T14:42:47.564Z,20.37
2019-04-14T14:45:17.414Z,20.60
2019-04-14T14:47:49.970Z,20.35
2019-04-14T14:50:19.840Z,20.82
2019-04-14T14:52:48.058Z,20.90
2019-04-14T14:55:16.398Z,21.35
2019-04-14T14:57:44.609Z,20.92
2019-04-14T15:00:15.643Z,19.80
2019-04-14T15:02:43.873Z,19.42
2019-04-14T15:05:12.113Z,20.57
2019-04-14T15:07:40.355Z,19.98
2019-04-14T15:10:08.583Z,19.77
2019-04-14T15:12:36.816Z,19.48
2019-04-14T15:15:06.043Z,19.92
2019-04-14T15:17:34.249Z,20.90
2019-04-14T15:20:02.557Z,20.30
2019-04-14T15:22:30.805Z,20.27
2019-04-14T15:24:59.026Z,21.30
2019-04-14T15:27:27.262Z,20.37
2019-04-14T15:29:55.596Z,20.32
2019-04-14T15:32:23.815Z,20.62
2019-04-14T15:34:52.055Z,20.00
2019-04-14T15:37:20.287Z,19.95
2019-04-14T15:39:48.542Z,20.60
2019-04-14T15:42:16.765Z,20.92
2019-04-14T15:44:45.482Z,20.65
2019-04-14T15:47:14.068Z,22.40
2019-04-14T15:49:42.400Z,20.00
2019-04-14T15:52:10.597Z,20.32
2019-04-14T15:54:38.830Z,20.82
2019-04-14T15:57:08.798Z,19.30
2019-04-14T15:59:41.421Z,21.57
2019-04-14T16:02:27.907Z,19.92
2019-04-14T16:05:14.507Z,20.02
2019-04-14T16:07:47.329Z,19.90
2019-04-14T16:10:25.926Z,21.67
2019-04-14T16:13:10.974Z,21.15
2019-04-14T16:15:46.654Z,20.85
2019-04-14T16:18:32.841Z,21.25
2019-04-14T16:21:01.120Z,21.07
2019-04-14T16:23:29.420Z,19.73
2019-04-14T16:26:15.898Z,20.30
2019-04-14T16:28:48.708Z,20.20
2019-04-14T16:31:34.929Z,21.90
2019-04-14T16:34:07.815Z,19.98
2019-04-14T16:36:36.105Z,20.00
2019-04-14T16:39:06.261Z,20.20
2019-04-14T16:41:34.620Z,20.10
2019-04-14T16:44:03.479Z,19.32
2019-04-14T16:46:31.765Z,19.80
2019-04-14T16:49:00.054Z,19.00
2019-04-14T16:51:46.189Z,18.42
2019-04-14T16:54:32.608Z,20.17
2019-04-14T16:57:05.331Z,18.73
2019-04-14T16:59:33.858Z,20.17
2019-04-14T17:02:10.895Z,22.55
2019-04-14T17:04:32.250Z,20.95
2019-04-14T17:07:01.389Z,18.62
2019-04-14T17:09:29.794Z,19.70
2019-04-14T17:11:59.429Z,20.43
2019-04-14T17:14:44.796Z,19.77
2019-04-14T17:17:31.297Z,21.10
2019-04-14T17:20:08.763Z,21.45
2019-04-14T17:22:44.423Z,21.12
2019-04-14T17:25:14.273Z,21.05
2019-04-14T17:27:56.570Z,19.98
2019-04-14T17:30:26.432Z,22.75
2019-04-14T17:33:05.400Z,21.50
2019-04-14T17:35:44.207Z,21.80
2019-04-14T17:38:32.324Z,19.95
2019-04-14T17:41:21.027Z,20.95
2019-04-14T17:43:50.904Z,19.57
2019-04-14T17:46:29.540Z,19.92
2019-04-14T17:48:59.417Z,20.15
2019-04-14T17:51:38.423Z,19.95
2019-04-14T17:54:29.294Z,20.57
2019-04-14T17:57:01.245Z,21.35
2019-04-14T17:59:31.098Z,19.37
2019-04-14T18:02:02.232Z,19.30
2019-04-14T18:04:35.016Z,20.48
2019-04-14T18:07:14.147Z,21.12
2019-04-14T18:09:46.755Z,20.92
2019-04-14T18:12:31.916Z,21.35
2019-04-14T18:15:11.921Z,20.95
2019-04-14T18:17:44.891Z,21.70
2019-04-14T18:20:14.818Z,22.43
2019-04-14T18:22:43.044Z,23.38
2019-04-14T18:25:11.448Z,21.93
2019-04-14T18:27:44.001Z,22.25
2019-04-14T18:30:26.124Z,22.10
2019-04-14T18:32:55.986Z,22.32
2019-04-14T18:35:26.347Z,20.90
2019-04-14T18:38:12.454Z,21.52
2019-04-14T18:41:00.766Z,20.72
2019-04-14T18:43:33.605Z,20.17
2019-04-14T18:46:03.518Z,22.10
2019-04-14T18:48:39.174Z,20.75
2019-04-14T18:51:09.032Z,21.23
2019-04-14T18:53:49.258Z,21.57
2019-04-14T18:56:34.086Z,21.50
2019-04-14T18:59:07.255Z,21.93
2019-04-14T19:01:42.908Z,21.27
2019-04-14T19:04:11.120Z,19.82
2019-04-14T19:06:40.282Z,21.97
2019-04-14T19:09:08.510Z,21.77
2019-04-14T19:11:53.494Z,21.70
2019-04-14T19:14:29.362Z,22.10
2019-04-14T19:17:01.742Z,20.55
2019-04-14T19:19:31.781Z,21.97
2019-04-14T19:22:00.079Z,21.33
2019-04-14T19:24:28.295Z,20.50
2019-04-14T19:26:56.523Z,20.25
2019-04-14T19:29:27.564Z,20.05
2019-04-14T19:31:54.810Z,22.62
2019-04-14T19:34:23.017Z,20.72
2019-04-14T19:36:51.244Z,20.02
2019-04-14T19:39:19.489Z,21.25
2019-04-14T19:41:47.794Z,21.73
2019-04-14T19:44:16.174Z,21.17
2019-04-14T19:46:44.859Z,20.48
2019-04-14T19:49:13.096Z,21.97
2019-04-14T19:51:41.330Z,21.12
2019-04-14T19:54:09.626Z,22.85
2019-04-14T19:56:37.853Z,22.87
2019-04-14T19:59:06.106Z,22.37
2019-04-14T20:01:34.603Z,21.57
2019-04-14T20:04:02.827Z,21.15
2019-04-14T20:06:31.221Z,21.80
2019-04-14T20:08:59.413Z,20.95
2019-04-14T20:11:27.650Z,22.07
2019-04-14T20:13:56.185Z,23.47
2019-04-14T20:16:42.486Z,24.25
2019-04-14T20:19:27.679Z,22.98
2019-04-14T20:22:06.552Z,22.73
2019-04-14T20:24:37.159Z,21.30
2019-04-14T20:27:22.362Z,23.57
2019-04-14T20:29:56.184Z,22.65
2019-04-14T20:32:27.851Z,22.32
2019-04-14T20:34:56.107Z,23.57
2019-04-14T20:37:24.327Z,21.97
2019-04-14T20:39:52.543Z,22.48
2019-04-14T20:42:20.773Z,22.82
2019-04-14T20:44:49.021Z,22.45
2019-04-14T20:47:17.508Z,21.62
2019-04-14T20:49:45.769Z,23.00
2019-04-14T20:52:14.010Z,23.22
2019-04-14T20:54:42.224Z,21.90
2019-04-14T20:57:10.446Z,21.82
2019-04-14T20:59:38.668Z,21.97
2019-04-14T21:02:14.417Z,22.17
2019-04-14T21:04:47.234Z,21.65
2019-04-14T21:07:17.114Z,21.47
2019-04-14T21:10:03.522Z,20.82
2019-04-14T21:12:33.374Z,21.87
2019-04-14T21:15:03.269Z,21.15
2019-04-14T21:17:38.898Z,20.77
2019-04-14T21:20:23.825Z,23.05
2019-04-14T21:22:56.559Z,20.95
2019-04-14T21:25:29.526Z,21.53
2019-04-14T21:27:59.394Z,22.37
2019-04-14T21:30:45.822Z,23.67
2019-04-14T21:33:32.235Z,22.48
2019-04-14T21:36:08.083Z,22.42
2019-04-14T21:38:37.972Z,22.13
2019-04-14T21:41:07.827Z,22.42
2019-04-14T21:43:36.042Z,21.55
2019-04-14T21:46:04.270Z,21.80
2019-04-14T21:48:32.493Z,21.62
2019-04-14T21:51:00.757Z,23.27
2019-04-14T21:53:28.976Z,22.75
2019-04-14T21:55:57.198Z,22.75
2019-04-14T21:58:29.843Z,23.75
2019-04-14T22:01:37.439Z,23.55
2019-04-14T22:04:23.838Z,23.57
2019-04-14T22:06:53.728Z,23.38
2019-04-14T22:09:29.445Z,23.73
2019-04-14T22:11:58.127Z,22.42
2019-04-14T22:14:26.395Z,23.20
2019-04-14T22:16:54.649Z,22.62
2019-04-14T22:19:22.873Z,23.80
2019-04-14T22:21:51.170Z,23.35
2019-04-14T22:24:19.462Z,22.65
2019-04-14T22:26:47.735Z,26.15
2019-04-14T22:29:16.014Z,24.72
2019-04-14T22:31:44.347Z,22.85
2019-04-14T22:34:12.607Z,25.65
2019-04-14T22:36:40.829Z,23.45
2019-04-14T22:39:10.703Z,23.32
2019-04-14T22:41:38.935Z,23.57
2019-04-14T22:44:07.900Z,24.65
2019-04-14T22:46:36.147Z,25.48
2019-04-14T22:49:04.402Z,25.32
2019-04-14T22:51:32.599Z,23.60
2019-04-14T22:54:00.859Z,26.23
2019-04-14T22:56:38.773Z,24.52
2019-04-14T22:58:59.046Z,25.52
2019-04-14T23:01:30.548Z,27.65
2019-04-14T23:04:06.109Z,27.02
2019-04-14T23:06:35.979Z,25.95
2019-04-14T23:09:10.103Z,27.02
2019-04-14T23:11:49.367Z,27.80
2019-04-14T23:14:22.355Z,27.62
2019-04-14T23:16:58.438Z,26.23
2019-04-14T23:19:28.287Z,29.25
2019-04-14T23:21:58.142Z,27.48
2019-04-14T23:24:27.999Z,29.00
2019-04-14T23:26:56.222Z,27.05
2019-04-14T23:29:24.446Z,29.23
2019-04-14T23:31:52.676Z,28.90
2019-04-14T23:34:20.889Z,29.92
2019-04-14T23:36:49.103Z,29.30
2019-04-14T23:39:17.326Z,30.05
2019-04-14T23:41:45.533Z,27.13
2019-04-14T23:44:13.804Z,28.50
2019-04-14T23:46:42.013Z,27.90
2019-04-14T23:49:10.245Z,29.55
2019-04-14T23:51:38.469Z,28.65
2019-04-14T23:54:06.686Z,27.40
2019-04-14T23:56:34.914Z,27.73
2019-04-14T23:59:04.167Z,27.40
